Station History

Weather Underground - logo

Station Historical Data
Daily Summary for January 11, 2018 Units:  Metric    English   Both
« Previous Day
Next Day »
Daily Weekly Monthly Yearly Custom
  High: Low: Average:
Temperature: 18.4 °C 7.1 °C 11.8 °C
Dew Point: 11.8 °C 6.4 °C 9.5 °C
Humidity: 97 % 62 % 87 %
Wind Speed: 5.6 km/h 0 km/h 0.5 km/h
Wind Gust: 5.6 km/h - -
Wind:- - South
Pressure: 1029 hPa 1024.3 hPa -
Precipitation: 0 mm    
Historical Graphs
 
 
Tabular Data for January 11, 2018
Time Temperature Dew Point Pressure Wind Wind Speed Wind Gust Humidity Rainfall Rate (Hourly)
00:04 7.9 °C 7.3 °C 1024.3 hPa Calm     96 % 0 mm
00:09 7.9 °C 7.3 °C 1024.3 hPa Calm     96 % 0 mm
00:15 7.9 °C 7.3 °C 1024.3 hPa Calm     96 % 0 mm
00:24 7.7 °C 6.9 °C 1024.3 hPa Calm     95 % 0 mm
00:36 7.3 °C 6.6 °C 1024.6 hPa Calm     95 % 0 mm
00:42 7.2 °C 6.4 °C 1024.6 hPa Calm     95 % 0 mm
01:00 7.1 °C 6.4 °C 1024.3 hPa Calm     96 % 0 mm
01:08 7.2 °C 6.6 °C 1024.6 hPa Calm     96 % 0 mm
01:16 7.3 °C 6.7 °C 1024.6 hPa Calm     96 % 0 mm
01:27 7.7 °C 7.1 °C 1024.9 hPa Calm     96 % 0 mm
01:37 7.8 °C 7.2 °C 1024.9 hPa Calm     96 % 0 mm
01:49 8 °C 7.4 °C 1025.3 hPa Calm     96 % 0 mm
02:01 8.2 °C 7.6 °C 1025.3 hPa ESE 1.9 km/h   96 % 0 mm
02:08 8.4 °C 7.8 °C 1025.3 hPa Calm     96 % 0 mm
02:14 8.5 °C 7.9 °C 1025.3 hPa Calm     96 % 0 mm
02:20 8.7 °C 8.1 °C 1025.3 hPa Calm     96 % 0 mm
02:36 8.7 °C 8.1 °C 1025.6 hPa Calm     96 % 0 mm
02:41 8.8 °C 8.2 °C 1025.3 hPa Calm     96 % 0 mm
02:47 8.8 °C 8.2 °C 1025.6 hPa Calm     96 % 0 mm
02:53 8.8 °C 8.2 °C 1025.6 hPa Calm     96 % 0 mm
03:03 8.9 °C 8.3 °C 1025.3 hPa Calm     96 % 0 mm
03:12 8.9 °C 8.3 °C 1025.3 hPa Calm     96 % 0 mm
03:17 8.9 °C 8.3 °C 1025.3 hPa Calm     96 % 0 mm
03:22 8.9 °C 8.3 °C 1025.3 hPa Calm     96 % 0 mm
03:30 8.9 °C 8.3 °C 1025.3 hPa Calm     96 % 0 mm
03:45 8.9 °C 8.3 °C 1025.3 hPa Calm     96 % 0 mm
03:55 8.8 °C 8.2 °C 1025.3 hPa Calm     96 % 0 mm
04:00 8.8 °C 8.2 °C 1025.3 hPa Calm     96 % 0 mm
04:07 8.7 °C 8.1 °C 1024.9 hPa Calm     96 % 0 mm
04:23 8.6 °C 7.9 °C 1024.9 hPa Calm     96 % 0 mm
04:31 8.3 °C 7.6 °C 1024.9 hPa Calm     95 % 0 mm
04:38 8.3 °C 7.7 °C 1024.9 hPa Calm     96 % 0 mm
04:46 8.1 °C 7.5 °C 1025.3 hPa Calm     96 % 0 mm
04:55 7.9 °C 7.3 °C 1025.3 hPa Calm     96 % 0 mm
05:15 7.8 °C 7.2 °C 1025.6 hPa Calm     96 % 0 mm
05:25 8.2 °C 7.6 °C 1025.6 hPa Calm     96 % 0 mm
05:31 8.4 °C 7.9 °C 1026 hPa Calm     97 % 0 mm
05:39 8.6 °C 8.2 °C 1026 hPa Calm     97 % 0 mm
05:45 8.8 °C 8.3 °C 1026 hPa Calm     97 % 0 mm
05:56 9.1 °C 8.4 °C 1026 hPa Calm     96 % 0 mm
06:05 9.2 °C 8.6 °C 1026.3 hPa Calm     96 % 0 mm
06:13 9.3 °C 8.7 °C 1026.3 hPa Calm     96 % 0 mm
06:25 9.5 °C 8.7 °C 1026.6 hPa Calm     95 % 0 mm
06:32 9.6 °C 8.8 °C 1026.6 hPa Calm     95 % 0 mm
06:37 9.6 °C 8.8 °C 1026.6 hPa Calm     95 % 0 mm
06:48 9.7 °C 8.9 °C 1026.6 hPa Calm     95 % 0 mm
06:53 9.7 °C 8.9 °C 1026.6 hPa Calm     95 % 0 mm
07:03 9.9 °C 9.2 °C 1026.6 hPa Calm     95 % 0 mm
07:19 10.1 °C 9.3 °C 1026.6 hPa Calm     95 % 0 mm
07:30 10.2 °C 9.4 °C 1026.6 hPa Calm     95 % 0 mm
07:36 10.2 °C 9.4 °C 1026.6 hPa Calm     95 % 0 mm
07:49 10.2 °C 9.4 °C 1026.6 hPa Calm     95 % 0 mm
07:56 10.2 °C 9.4 °C 1027 hPa Calm     95 % 0 mm
08:02 10.3 °C 9.5 °C 1027 hPa Calm     95 % 0 mm
08:07 10.3 °C 9.6 °C 1027 hPa NE 1.9 km/h   95 % 0 mm
08:14 10.4 °C 9.6 °C 1027 hPa Calm     95 % 0 mm
08:20 10.4 °C 9.6 °C 1027.3 hPa NE 1.6 km/h   95 % 0 mm
08:37 10.5 °C 9.6 °C 1027.7 hPa Calm     94 % 0 mm
08:49 10.7 °C 9.8 °C 1028 hPa Calm     94 % 0 mm
08:56 10.9 °C 9.9 °C 1028.3 hPa Calm     94 % 0 mm
09:14 11.3 °C 10.4 °C 1028.7 hPa Calm     94 % 0 mm
09:20 11.6 °C 10.5 °C 1028.7 hPa NNE 1.9 km/h   93 % 0 mm
09:26 12 °C 10.9 °C 1028.7 hPa Calm     93 % 0 mm
09:32 12.5 °C 11.2 °C 1029 hPa Calm     92 % 0 mm
09:46 13.3 °C 11.7 °C 1029 hPa Calm     90 % 0 mm
09:54 13.6 °C 11.5 °C 1029 hPa Calm     87 % 0 mm
10:05 13.9 °C 11.8 °C 1028.7 hPa Calm     87 % 0 mm
10:14 14.1 °C 11.7 °C 1028.7 hPa SE 1.9 km/h 1.9 km/h 86 % 0 mm
10:57 14.9 °C 11.7 °C 1028.3 hPa Calm     81 % 0 mm
11:02 14.9 °C 11.8 °C 1028.3 hPa NW 1.9 km/h   82 % 0 mm
11:07 14.6 °C 11.8 °C 1028.3 hPa WNW 1.9 km/h   83 % 0 mm
11:33 14.3 °C 11.7 °C 1027.7 hPa Calm     84 % 0 mm
11:46 14.7 °C 11.8 °C 1027.3 hPa Calm     83 % 0 mm
12:07 15.3 °C 11.5 °C 1027 hPa Calm     78 % 0 mm
12:16 15.7 °C 11.2 °C 1027 hPa Calm     75 % 0 mm
12:32 16.2 °C 11.5 °C 1026.6 hPa WNW 1.9 km/h 1.9 km/h 74 % 0 mm
12:37 16.2 °C 11.4 °C 1026.6 hPa WNW 1.9 km/h   73 % 0 mm
12:43 16.3 °C 11.1 °C 1026.6 hPa WNW 3.7 km/h 3.7 km/h 71 % 0 mm
12:48 16.4 °C 11.6 °C 1026.6 hPa SSE 1.9 km/h 1.9 km/h 73 % 0 mm
12:53 16.8 °C 11.7 °C 1026.3 hPa SSE 3.7 km/h   72 % 0 mm
12:58 17 °C 11.5 °C 1026.3 hPa NNW 1.9 km/h 1.9 km/h 70 % 0 mm
13:04 17 °C 11.5 °C 1026.3 hPa SSE 1.9 km/h 1.9 km/h 70 % 0 mm
13:09 17.3 °C 11.6 °C 1026.3 hPa SSE 1.9 km/h 1.9 km/h 69 % 0 mm
13:15 17.4 °C 11.5 °C 1026.3 hPa SSW 1.9 km/h 1.9 km/h 68 % 0 mm
13:20 17.6 °C 11.2 °C 1026 hPa NW 3.7 km/h 3.7 km/h 66 % 0 mm
13:32 17.7 °C 11.2 °C 1026 hPa SE 1.9 km/h   66 % 0 mm
13:36 17.8 °C 11.2 °C 1026 hPa Calm     65 % 0 mm
14:01 18.3 °C 11.6 °C 1025.6 hPa ESE 5.6 km/h 5.6 km/h 65 % 0 mm
14:12 18.4 °C 11 °C 1025.6 hPa Calm   0.2 km/h 62 % 0 mm
14:17 18.4 °C 11 °C 1025.6 hPa SE 1.6 km/h 1.6 km/h 62 % 0 mm
14:23 18.3 °C 10.9 °C 1025.6 hPa NNW 1.9 km/h 1.9 km/h 62 % 0 mm
14:31 18.1 °C 10.9 °C 1025.6 hPa East 3.2 km/h 3.2 km/h 63 % 0 mm
14:32 18.1 °C 10.9 °C 1025.6 hPa SE 3.7 km/h 3.7 km/h 63 % 0 mm
15:01 17.3 °C 10.6 °C 1025.3 hPa NW 1.9 km/h   65 % 0 mm
15:03 17.2 °C 10.8 °C 1025.3 hPa SSE 3.7 km/h 3.7 km/h 66 % 0 mm
15:16 17.1 °C 10.7 °C 1025.3 hPa Calm     66 % 0 mm
15:22 17 °C 10.6 °C 1025.3 hPa Calm     66 % 0 mm
15:30 16.9 °C 10.7 °C 1025.3 hPa Calm     67 % 0 mm
15:40 16.9 °C 10.7 °C 1025.3 hPa Calm     67 % 0 mm
15:42 16.9 °C 10.7 °C 1025.3 hPa Calm     67 % 0 mm
15:51 16.7 °C 10.5 °C 1025.3 hPa Calm     67 % 0 mm
16:01 16.5 °C 10.6 °C 1025.3 hPa Calm     68 % 0 mm
16:06 16.5 °C 10.6 °C 1025.3 hPa Calm     68 % 0 mm
16:12 16.4 °C 10.7 °C 1025.3 hPa Calm     69 % 0 mm
16:17 16.3 °C 10.6 °C 1025.3 hPa Calm     69 % 0 mm
16:28 16.1 °C 10.8 °C 1025.3 hPa Calm     71 % 0 mm
16:34 15.9 °C 10.8 °C 1025.3 hPa Calm     72 % 0 mm
16:48 15.4 °C 10.6 °C 1025.3 hPa Calm     73 % 0 mm
17:09 14.3 °C 10.6 °C 1025.3 hPa Calm     78 % 0 mm
17:24 13.6 °C 10.4 °C 1025.6 hPa Calm     81 % 0 mm
17:29 13.5 °C 10.5 °C 1025.6 hPa Calm     82 % 0 mm
17:34 13.3 °C 10.4 °C 1025.6 hPa Calm     83 % 0 mm
17:47 12.9 °C 10.4 °C 1025.6 hPa Calm     85 % 0 mm
17:49 12.8 °C 10.4 °C 1025.6 hPa Calm     85 % 0 mm
17:59 12.7 °C 10.3 °C 1026 hPa Calm     85 % 0 mm
18:04 12.6 °C 10.3 °C 1026 hPa Calm     86 % 0 mm
18:19 12.6 °C 10.3 °C 1026 hPa Calm     86 % 0 mm
18:24 12.4 °C 10.1 °C 1026 hPa Calm     86 % 0 mm
18:37 11.9 °C 9.8 °C 1026 hPa Calm     87 % 0 mm
18:43 11.7 °C 9.8 °C 1026 hPa Calm     88 % 0 mm
18:49 11.6 °C 9.6 °C 1026 hPa Calm     88 % 0 mm
18:55 11.3 °C 9.6 °C 1026.3 hPa Calm     89 % 0 mm
19:02 11.2 °C 9.6 °C 1026.3 hPa Calm     90 % 0 mm
19:14 11.1 °C 9.5 °C 1026.3 hPa Calm     90 % 0 mm
19:24 10.8 °C 9.3 °C 1026.3 hPa Calm     90 % 0 mm
19:30 10.8 °C 9.3 °C 1026.3 hPa Calm     90 % 0 mm
19:39 10.7 °C 9.3 °C 1026.3 hPa Calm     91 % 0 mm
19:44 10.6 °C 9.2 °C 1026.3 hPa Calm     91 % 0 mm
20:12 10.4 °C 9.2 °C 1026.6 hPa Calm     92 % 0 mm
20:19 10.5 °C 9.4 °C 1026.3 hPa Calm     93 % 0 mm
20:25 10.6 °C 9.3 °C 1026.6 hPa Calm     92 % 0 mm
20:34 10.6 °C 9.3 °C 1026.6 hPa Calm     92 % 0 mm
20:45 10.6 °C 9.3 °C 1026.6 hPa Calm     92 % 0 mm
20:53 10.7 °C 9.4 °C 1027 hPa Calm     92 % 0 mm
20:59 10.7 °C 9.6 °C 1027 hPa Calm     93 % 0 mm
21:06 10.9 °C 9.8 °C 1027 hPa Calm     93 % 0 mm
21:15 11.1 °C 9.8 °C 1027 hPa Calm     92 % 0 mm
21:24 11.1 °C 9.8 °C 1027 hPa Calm     92 % 0 mm
21:29 10.9 °C 9.7 °C 1027 hPa Calm     92 % 0 mm
21:43 10.6 °C 9.4 °C 1027 hPa Calm     92 % 0 mm
21:52 10.4 °C 9.2 °C 1027 hPa Calm     92 % 0 mm
22:00 10.3 °C 9.1 °C 1027 hPa Calm     92 % 0 mm
22:08 10.2 °C 8.9 °C 1027 hPa Calm     92 % 0 mm
22:20 10 °C 8.9 °C 1027 hPa Calm     93 % 0 mm
23:04 9.4 °C 8.5 °C 1026.6 hPa Calm     94 % 0 mm
23:17 9.2 °C 8.3 °C 1026.6 hPa Calm     94 % 0 mm
23:28 8.8 °C 7.7 °C 1026.6 hPa Calm     93 % 0 mm
23:35 8.7 °C 7.8 °C 1026.6 hPa Calm     94 % 0 mm
23:50 8.4 °C 7.6 °C 1026.6 hPa Calm     94 % 0 mm
Park Place, Exeter, Tulare County, California, USA
Compliments of Weather Underground - 2 mb